Bonaria — ICUS — position and weather

sailwx.info

Track history (hours):
 
Tides and Currents Weather Stations Pressure Air Temp Water Temp Dewpoint Dewpoint Depression Visibility Wind Speed Wind Dir Waves Ship Positions

Bonaria

Last reported at 2014-Dec-21 21:33 UTC. Time now 2014-Dec-22 01:19 UTC.
Position N 40°55' E 009°32'.

Length 213 m; draft 6.8 m.

Type: Ship. MMSI: 247322400.

Date/timePositionNaut miles runAvg speedWind from/ knotsBaromVisibWave heightAir tempDewpointWater temp
2014-Dec-21 21:33N 40°55' E 009°32'0 0.0
2014-Dec-21 19:31N 40°55' E 009°32'0 0.0
2014-Dec-21 18:15N 40°55' E 009°32'0 0.0
2014-Dec-21 17:33N 40°55' E 009°32'0 0.0
2014-Dec-21 16:29N 40°55' E 009°32'0 0.0
2014-Dec-21 14:32N 40°55' E 009°32'0 0.0
2014-Dec-21 13:07N 40°55' E 009°32'0 0.0
2014-Dec-21 12:31N 40°55' E 009°32'0 0.0
2014-Dec-21 11:27N 40°55' E 009°32'0 0.0
2014-Dec-21 09:32N 40°55' E 009°32'0 0.0
2014-Dec-21 08:05N 40°55' E 009°32'0 0.0
2014-Dec-21 07:31N 40°55' E 009°32'0 0.0
2014-Dec-21 06:25N 40°55' E 009°32'0 0.0
2014-Dec-21 05:33N 40°55' E 009°32'4 0.1
2014-Dec-19 22:21N 40°56' E 009°36'4 4.4
2014-Dec-19 21:31N 40°55' E 009°32'0 0.0
2014-Dec-19 20:31N 40°55' E 009°32'0 0.0
2014-Dec-19 18:33N 40°55' E 009°32'0 0.0
2014-Dec-19 17:08N 40°55' E 009°32'0 0.0
2014-Dec-19 16:32N 40°55' E 009°32'0 0.0
2014-Dec-19 15:29N 40°55' E 009°32'0 0.0
2014-Dec-19 13:31N 40°55' E 009°32'0 0.0
2014-Dec-19 12:03N 40°55' E 009°32'0 0.0
2014-Dec-19 11:33N 40°55' E 009°32'0 0.0
2014-Dec-19 10:20N 40°55' E 009°32'0 0.0
2014-Dec-19 09:32N 40°55' E 009°32'0 0.0
2014-Dec-19 08:32N 40°55' E 009°32'0 0.0
2014-Dec-19 06:31N 40°55' E 009°32'0 0.0
2014-Dec-19 05:33N 40°55' E 009°32'8 0.2
2014-Dec-17 22:22N 40°57' E 009°41'8 8.7
2014-Dec-17 21:28N 40°55' E 009°31'0 0.0
2014-Dec-17 19:33N 40°55' E 009°31'0 0.0
2014-Dec-17 18:21N 40°55' E 009°31'0 0.0
2014-Dec-17 17:29N 40°55' E 009°31'0 0.0
2014-Dec-17 16:23N 40°55' E 009°31'0 0.0
2014-Dec-17 08:04N 40°55' E 009°32'0 0.0
2014-Dec-17 07:33N 40°55' E 009°32'0 0.0
2014-Dec-17 06:33N 40°55' E 009°32'0 0.0
2014-Dec-17 05:12N 40°55' E 009°32'2 2.8
2014-Dec-17 04:33N 40°55' E 009°34'9 0.3
2014-Dec-15 22:27N 40°60' E 009°45'1112.2
2014-Dec-15 21:33N 40°55' E 009°32'0 0.0
2014-Dec-15 20:03N 40°55' E 009°32'0 0.0
2014-Dec-15 19:33N 40°55' E 009°32'0 0.0
2014-Dec-15 18:30N 40°55' E 009°32'0 0.0
2014-Dec-15 16:32N 40°55' E 009°32'0 0.0
2014-Dec-15 14:31N 40°55' E 009°32'0 0.0
2014-Dec-15 13:25N 40°55' E 009°32'0 0.0
2014-Dec-15 11:33N 40°55' E 009°32'0 0.0
2014-Dec-15 09:32N 40°55' E 009°32'0 0.0
2014-Dec-15 08:13N 40°55' E 009°32'0 0.0
2014-Dec-15 07:31N 40°55' E 009°32'0 0.0
2014-Dec-15 06:31N 40°55' E 009°32'0 0.0
2014-Dec-15 05:34N 40°55' E 009°32'9 8.4
2014-Dec-15 04:32N 40°59' E 009°42'116 3.4
2014-Dec-13 18:09N 39°04' E 009°21'1219.5
2014-Dec-13 17:33N 39°10' E 009°08'3 2.8
2014-Dec-13 16:33N 39°13' E 009°06'0 0.0
2014-Dec-13 15:33N 39°13' E 009°06'0 0.0
2014-Dec-13 14:32N 39°13' E 009°06'0 0.0
2014-Dec-13 13:33N 39°13' E 009°06'0 0.0
2014-Dec-13 12:33N 39°13' E 009°06'0 0.0
2014-Dec-13 11:32N 39°13' E 009°06'0 0.0
2014-Dec-13 10:33N 39°13' E 009°06'0 0.0
2014-Dec-13 09:33N 39°13' E 009°06'7 7.5
2014-Dec-13 08:33N 39°07' E 009°13'  
Track history (hours):
 
Tides and Currents Weather Stations Pressure Air Temp Water Temp Dewpoint Dewpoint Depression Visibility Wind Speed Wind Dir Waves Ship Positions

Bonaria

Last reported at 2014-Dec-21 21:33 UTC. Time now 2014-Dec-22 01:19 UTC.
Position N 40°55' E 009°32'.

Length 213 m; draft 6.8 m.

Type: Ship. MMSI: 247322400.

Date/timePositionNaut miles runAvg speedWind from/ knotsBaromVisibWave heightAir tempDewpointWater temp
2014-Dec-21 21:33N 40°55' E 009°32'0 0.0
2014-Dec-21 19:31N 40°55' E 009°32'0 0.0
2014-Dec-21 18:15N 40°55' E 009°32'0 0.0
2014-Dec-21 17:33N 40°55' E 009°32'0 0.0
2014-Dec-21 16:29N 40°55' E 009°32'0 0.0
2014-Dec-21 14:32N 40°55' E 009°32'0 0.0
2014-Dec-21 13:07N 40°55' E 009°32'0 0.0
2014-Dec-21 12:31N 40°55' E 009°32'0 0.0
2014-Dec-21 11:27N 40°55' E 009°32'0 0.0
2014-Dec-21 09:32N 40°55' E 009°32'0 0.0
2014-Dec-21 08:05N 40°55' E 009°32'0 0.0
2014-Dec-21 07:31N 40°55' E 009°32'0 0.0
2014-Dec-21 06:25N 40°55' E 009°32'0 0.0
2014-Dec-21 05:33N 40°55' E 009°32'4 0.1
2014-Dec-19 22:21N 40°56' E 009°36'4 4.4
2014-Dec-19 21:31N 40°55' E 009°32'0 0.0
2014-Dec-19 20:31N 40°55' E 009°32'0 0.0
2014-Dec-19 18:33N 40°55' E 009°32'0 0.0
2014-Dec-19 17:08N 40°55' E 009°32'0 0.0
2014-Dec-19 16:32N 40°55' E 009°32'0 0.0
2014-Dec-19 15:29N 40°55' E 009°32'0 0.0
2014-Dec-19 13:31N 40°55' E 009°32'0 0.0
2014-Dec-19 12:03N 40°55' E 009°32'0 0.0
2014-Dec-19 11:33N 40°55' E 009°32'0 0.0
2014-Dec-19 10:20N 40°55' E 009°32'0 0.0
2014-Dec-19 09:32N 40°55' E 009°32'0 0.0
2014-Dec-19 08:32N 40°55' E 009°32'0 0.0
2014-Dec-19 06:31N 40°55' E 009°32'0 0.0
2014-Dec-19 05:33N 40°55' E 009°32'8 0.2
2014-Dec-17 22:22N 40°57' E 009°41'8 8.7
2014-Dec-17 21:28N 40°55' E 009°31'0 0.0
2014-Dec-17 19:33N 40°55' E 009°31'0 0.0
2014-Dec-17 18:21N 40°55' E 009°31'0 0.0
2014-Dec-17 17:29N 40°55' E 009°31'0 0.0
2014-Dec-17 16:23N 40°55' E 009°31'0 0.0
2014-Dec-17 08:04N 40°55' E 009°32'0 0.0
2014-Dec-17 07:33N 40°55' E 009°32'0 0.0
2014-Dec-17 06:33N 40°55' E 009°32'0 0.0
2014-Dec-17 05:12N 40°55' E 009°32'2 2.8
2014-Dec-17 04:33N 40°55' E 009°34'9 0.3
2014-Dec-15 22:27N 40°60' E 009°45'1112.2
2014-Dec-15 21:33N 40°55' E 009°32'0 0.0
2014-Dec-15 20:03N 40°55' E 009°32'0 0.0
2014-Dec-15 19:33N 40°55' E 009°32'0 0.0
2014-Dec-15 18:30N 40°55' E 009°32'0 0.0
2014-Dec-15 16:32N 40°55' E 009°32'0 0.0
2014-Dec-15 14:31N 40°55' E 009°32'0 0.0
2014-Dec-15 13:25N 40°55' E 009°32'0 0.0
2014-Dec-15 11:33N 40°55' E 009°32'0 0.0
2014-Dec-15 09:32N 40°55' E 009°32'0 0.0
2014-Dec-15 08:13N 40°55' E 009°32'0 0.0
2014-Dec-15 07:31N 40°55' E 009°32'0 0.0
2014-Dec-15 06:31N 40°55' E 009°32'0 0.0
2014-Dec-15 05:34N 40°55' E 009°32'9 8.4
2014-Dec-15 04:32N 40°59' E 009°42'116 3.4
2014-Dec-13 18:09N 39°04' E 009°21'1219.5
2014-Dec-13 17:33N 39°10' E 009°08'3 2.8
2014-Dec-13 16:33N 39°13' E 009°06'0 0.0
2014-Dec-13 15:33N 39°13' E 009°06'0 0.0
2014-Dec-13 14:32N 39°13' E 009°06'0 0.0
2014-Dec-13 13:33N 39°13' E 009°06'0 0.0
2014-Dec-13 12:33N 39°13' E 009°06'0 0.0
2014-Dec-13 11:32N 39°13' E 009°06'0 0.0
2014-Dec-13 10:33N 39°13' E 009°06'0 0.0
2014-Dec-13 09:33N 39°13' E 009°06'7 7.5
2014-Dec-13 08:33N 39°07' E 009°13'  

Dump ship's entire track history